createdAt,value
2018-08-20T03:23:58.063Z,20.70
2018-08-20T03:29:02.014Z,20.80
2018-08-20T03:34:06.562Z,20.80
2018-08-20T03:39:11.283Z,20.90
2018-08-20T03:44:15.433Z,20.90
2018-08-20T03:49:19.655Z,20.90
2018-08-20T03:54:23.503Z,20.90
2018-08-20T03:59:37.321Z,20.90
2018-08-20T04:04:41.096Z,20.90
2018-08-20T04:09:44.993Z,20.90
2018-08-20T04:14:53.116Z,20.90
2018-08-20T04:19:56.586Z,20.90
2018-08-20T04:25:00.484Z,20.90
2018-08-20T04:30:04.908Z,20.90
2018-08-20T04:35:09.339Z,20.90
2018-08-20T04:40:13.419Z,20.80
2018-08-20T04:45:17.632Z,20.90
2018-08-20T04:50:21.691Z,20.80
2018-08-20T04:55:26.185Z,21.00
2018-08-20T05:00:30.891Z,20.90
2018-08-20T05:05:35.472Z,20.80
2018-08-20T05:12:45.992Z,20.90
2018-08-20T05:17:49.784Z,21.10
2018-08-20T05:22:53.389Z,21.00
2018-08-20T05:27:58.830Z,20.90
2018-08-20T05:33:02.919Z,20.80
2018-08-20T05:38:07.321Z,20.80
2018-08-20T05:43:11.050Z,20.70
2018-08-20T05:48:14.812Z,20.70
2018-08-20T05:53:18.397Z,20.70
2018-08-20T05:58:22.026Z,20.60
2018-08-20T06:03:32.066Z,20.60
2018-08-20T06:08:36.753Z,20.70
2018-08-20T06:13:41.149Z,20.60
2018-08-20T06:18:46.505Z,20.60
2018-08-20T06:23:52.282Z,20.70
2018-08-20T06:28:57.564Z,20.60
2018-08-20T06:34:02.771Z,20.50
2018-08-20T06:39:08.863Z,20.60
2018-08-20T06:44:13.211Z,20.60
2018-08-20T06:49:17.108Z,20.60
2018-08-20T06:54:22.549Z,20.60
2018-08-20T06:59:26.014Z,20.60
2018-08-20T07:04:30.621Z,20.60
2018-08-20T07:09:34.671Z,20.50
2018-08-20T07:14:39.261Z,20.50
2018-08-20T07:19:43.411Z,20.60
2018-08-20T07:24:48.160Z,20.70
2018-08-20T07:29:53.219Z,20.80
2018-08-20T07:34:57.479Z,20.90
2018-08-20T07:40:01.785Z,20.80
2018-08-20T07:45:06.726Z,20.90
2018-08-20T07:50:10.992Z,20.80
2018-08-20T07:55:14.487Z,20.90
2018-08-20T08:00:18.469Z,20.90
2018-08-20T08:05:22.985Z,21.00
2018-08-20T08:10:26.718Z,21.00
2018-08-20T08:15:31.225Z,21.00
2018-08-20T08:20:35.270Z,21.00
2018-08-20T08:25:39.400Z,21.00
2018-08-20T08:30:43.977Z,21.00
2018-08-20T08:35:48.594Z,21.10
2018-08-20T08:40:53.899Z,21.20
2018-08-20T08:45:57.299Z,21.30
2018-08-20T08:51:07.361Z,21.30
2018-08-20T08:56:10.993Z,21.30
2018-08-20T09:01:15.012Z,21.30
2018-08-20T09:06:19.336Z,21.30
2018-08-20T09:11:23.297Z,21.50
2018-08-20T09:16:26.675Z,21.60
2018-08-20T09:21:33.863Z,21.70
2018-08-20T09:26:38.521Z,21.80
2018-08-20T09:31:42.477Z,21.80
2018-08-20T09:36:45.926Z,21.60
2018-08-20T09:41:49.504Z,21.70
2018-08-20T09:46:52.914Z,21.80
2018-08-20T09:51:56.864Z,21.80
2018-08-20T09:57:00.471Z,21.70
2018-08-20T10:02:05.522Z,21.70
2018-08-20T10:07:09.134Z,21.80
2018-08-20T10:12:14.756Z,22.00
2018-08-20T10:17:18.175Z,21.80
2018-08-20T10:22:22.408Z,21.90
2018-08-20T10:27:34.398Z,22.10
2018-08-20T10:32:38.326Z,22.10
2018-08-20T10:37:41.752Z,22.10
2018-08-20T10:42:45.663Z,22.10
2018-08-20T10:47:50.008Z,22.30
2018-08-20T10:52:54.703Z,22.40
2018-08-20T10:58:00.380Z,22.50
2018-08-20T11:03:04.126Z,22.50
2018-08-20T11:08:09.607Z,22.50
2018-08-20T11:13:13.960Z,22.50
2018-08-20T11:18:18.006Z,22.50
2018-08-20T11:23:22.090Z,22.40
2018-08-20T11:28:26.284Z,22.50
2018-08-20T11:33:30.151Z,22.70
2018-08-20T11:38:35.393Z,22.80
2018-08-20T11:43:38.853Z,23.00
2018-08-20T11:48:42.867Z,23.30
2018-08-20T11:53:46.266Z,23.30
2018-08-20T11:58:53.621Z,23.20
2018-08-20T12:03:57.293Z,23.20
2018-08-20T12:09:03.222Z,23.30
2018-08-20T12:14:06.606Z,23.30
2018-08-20T12:19:14.627Z,23.50
2018-08-20T12:24:20.292Z,23.50
2018-08-20T12:29:27.951Z,23.50
2018-08-20T12:34:32.095Z,23.50
2018-08-20T12:39:36.214Z,23.50
2018-08-20T12:44:41.526Z,23.40
2018-08-20T12:49:44.915Z,23.30
2018-08-20T12:54:49.948Z,23.40
2018-08-20T12:59:58.032Z,23.50
2018-08-20T13:05:01.360Z,23.50
2018-08-20T13:10:05.600Z,23.50
2018-08-20T13:15:10.316Z,23.50
2018-08-20T13:20:14.786Z,23.60
2018-08-20T13:25:18.912Z,23.70
2018-08-20T13:30:23.550Z,23.50
2018-08-20T13:35:27.454Z,23.50
2018-08-20T13:40:31.846Z,23.50
2018-08-20T13:45:36.067Z,23.60
2018-08-20T13:50:40.908Z,23.40
2018-08-20T13:55:44.610Z,23.40
2018-08-20T14:00:48.638Z,23.20
2018-08-20T14:05:51.977Z,23.40
2018-08-20T14:10:56.309Z,23.50
2018-08-20T14:16:00.380Z,23.60
2018-08-20T14:21:06.566Z,23.70
2018-08-20T14:26:12.838Z,23.60
2018-08-20T14:31:16.981Z,23.60
2018-08-20T14:36:20.306Z,23.70
2018-08-20T14:41:24.716Z,23.70
2018-08-20T14:46:28.783Z,23.70
2018-08-20T14:51:32.258Z,23.60
2018-08-20T14:56:36.898Z,23.60
2018-08-20T15:01:41.398Z,23.40
2018-08-20T15:06:56.927Z,23.40
2018-08-20T15:12:02.532Z,23.40
2018-08-20T15:17:05.983Z,23.30
2018-08-20T15:22:10.215Z,23.40
2018-08-20T15:27:15.588Z,23.20
2018-08-20T15:32:19.302Z,23.10
2018-08-20T15:37:22.946Z,23.30
2018-08-20T15:42:27.259Z,23.40
2018-08-20T15:47:30.734Z,23.40
2018-08-20T15:52:34.869Z,23.30
2018-08-20T15:57:39.026Z,23.30
2018-08-20T16:02:45.279Z,23.20
2018-08-20T16:08:15.276Z,23.20
2018-08-20T16:19:14.986Z,23.30
2018-08-20T16:24:18.985Z,23.20
2018-08-20T16:29:22.612Z,23.20
2018-08-20T16:34:26.150Z,23.20
2018-08-20T16:39:29.712Z,23.10
2018-08-20T16:44:33.942Z,23.20
2018-08-20T16:49:37.882Z,23.10
2018-08-20T16:54:55.352Z,23.10
2018-08-20T16:59:59.359Z,23.10
2018-08-20T17:05:03.338Z,23.20
2018-08-20T17:15:34.650Z,23.20
2018-08-20T17:32:13.893Z,23.10
2018-08-20T17:37:21.005Z,23.00
2018-08-20T17:42:26.139Z,23.00
2018-08-20T17:47:32.213Z,23.00
2018-08-20T17:52:42.290Z,22.90
2018-08-20T17:57:45.708Z,22.90
2018-08-20T18:02:49.439Z,22.90
2018-08-20T18:07:53.791Z,22.80
2018-08-20T18:12:58.910Z,22.70
2018-08-20T18:18:02.777Z,22.70
2018-08-20T18:23:07.120Z,22.60
2018-08-20T18:28:11.729Z,22.50
2018-08-20T18:33:15.694Z,22.40
2018-08-20T18:38:19.431Z,22.30
2018-08-20T18:43:22.926Z,22.30
2018-08-20T18:48:30.899Z,22.30
2018-08-20T18:53:35.633Z,22.30
2018-08-20T18:58:40.817Z,21.90
2018-08-20T19:03:46.746Z,21.70
2018-08-20T19:08:50.207Z,21.60
2018-08-20T19:13:53.905Z,21.30
2018-08-20T19:18:57.707Z,21.20
2018-08-20T19:24:01.279Z,21.20
2018-08-20T19:29:16.568Z,21.10
2018-08-20T19:34:20.668Z,21.00
2018-08-20T19:39:24.505Z,20.90
2018-08-20T19:44:28.263Z,20.90
2018-08-20T19:49:32.400Z,20.90
2018-08-20T19:54:37.474Z,20.80
2018-08-20T19:59:41.655Z,20.70
2018-08-20T20:04:46.524Z,20.60
2018-08-20T20:09:50.076Z,20.50
2018-08-20T20:14:53.995Z,20.70
2018-08-20T20:19:57.487Z,20.60
2018-08-20T20:25:01.065Z,20.50
2018-08-20T20:30:06.936Z,20.40
2018-08-20T20:35:11.280Z,20.40
2018-08-20T20:40:15.085Z,20.40
2018-08-20T20:45:20.336Z,20.40
2018-08-20T20:50:23.811Z,20.30
2018-08-20T20:55:27.230Z,20.30
2018-08-20T21:00:30.899Z,20.30
2018-08-20T21:05:34.352Z,20.30
2018-08-20T21:10:43.381Z,20.30
2018-08-20T21:15:53.645Z,20.30
2018-08-20T21:20:58.181Z,20.20
2018-08-20T21:26:02.901Z,20.20
2018-08-20T21:31:07.306Z,20.20
2018-08-20T21:36:12.299Z,20.10
2018-08-20T21:41:16.211Z,20.10
2018-08-20T21:46:19.661Z,20.00
2018-08-20T21:52:25.951Z,20.20
2018-08-20T21:57:29.360Z,20.10
2018-08-20T22:02:32.947Z,20.00
2018-08-20T22:07:37.338Z,20.10
2018-08-20T22:12:41.789Z,19.90
2018-08-20T22:17:47.247Z,19.90
2018-08-20T22:22:50.952Z,19.80
2018-08-20T22:27:57.435Z,19.80
2018-08-20T22:33:00.888Z,19.90
2018-08-20T22:38:04.416Z,19.90
2018-08-20T22:43:08.419Z,19.90
2018-08-20T22:48:12.307Z,20.00
2018-08-20T22:53:17.554Z,20.00
2018-08-20T22:58:21.694Z,19.90
2018-08-20T23:03:25.049Z,19.90
2018-08-20T23:08:31.818Z,19.80
2018-08-20T23:13:35.643Z,19.80
2018-08-20T23:18:39.904Z,19.80
2018-08-20T23:23:43.988Z,19.70
2018-08-20T23:28:47.738Z,19.60
2018-08-20T23:33:51.545Z,19.70
2018-08-20T23:38:56.153Z,19.60
2018-08-20T23:43:59.958Z,19.60
2018-08-20T23:49:04.203Z,19.60
2018-08-20T23:54:08.469Z,19.70
2018-08-20T23:59:12.458Z,19.70
